Terminal Aerodrome Forecast
Issued by NWS Indianapolis, IN

Home | Current Version | Previous Version | Text Only | Print | Product List | Glossary On
Versions: 1 2 3 4 5 6 7 8 9 10 11 12 13 14 15 16 17 18 19 20 21 22 23 24 25 26 27 28 29 30
330
FTUS43 KIND 282031 AAA
TAFIND
TAF AMD
KIND 282031Z 2821/2924 27014G20KT P6SM SCT035 BKN060
     FM290100 28009KT P6SM SCT020 BKN040
     FM290600 30006KT 5SM BR SCT007 BKN015
     FM290900 28006KT 3SM BR BKN007
     FM291500 28004KT P6SM BKN020=

USA.gov is the U.S. government's official web portal to all federal, state and local government web resources and services.